createdAt,value
2023-03-07T00:02:18.425Z,0.52
2023-03-07T00:04:46.278Z,0.47
2023-03-07T00:07:13.693Z,0.51
2023-03-07T00:09:40.105Z,0.57
2023-03-07T00:12:08.173Z,0.52
2023-03-07T00:14:35.439Z,0.61
2023-03-07T00:17:02.155Z,0.66
2023-03-07T00:19:28.610Z,0.66
2023-03-07T00:21:55.020Z,0.70
2023-03-07T00:24:21.512Z,0.70
2023-03-07T00:26:47.963Z,0.68
2023-03-07T00:29:14.357Z,0.76
2023-03-07T00:31:40.893Z,0.85
2023-03-07T00:34:07.345Z,0.91
2023-03-07T00:36:33.740Z,0.91
2023-03-07T00:39:00.149Z,0.82
2023-03-07T00:41:28.227Z,0.86
2023-03-07T00:43:55.385Z,0.89
2023-03-07T00:46:23.883Z,0.96
2023-03-07T00:48:50.636Z,0.99
2023-03-07T00:51:18.916Z,0.98
2023-03-07T00:53:46.000Z,1.00
2023-03-07T00:56:18.313Z,0.97
2023-03-07T00:58:45.491Z,0.91
2023-03-07T01:01:14.388Z,0.93
2023-03-07T01:03:41.996Z,0.92
2023-03-07T01:06:13.057Z,0.89
2023-03-07T01:08:39.695Z,0.82
2023-03-07T01:11:07.068Z,0.87
2023-03-07T01:13:35.237Z,0.85
2023-03-07T01:16:20.413Z,0.87
2023-03-07T01:18:55.885Z,0.86
2023-03-07T01:21:24.021Z,0.81
2023-03-07T01:23:51.481Z,0.81
2023-03-07T01:26:20.588Z,0.81
2023-03-07T01:28:47.774Z,0.84
2023-03-07T01:31:14.292Z,0.74
2023-03-07T01:33:41.304Z,0.73
2023-03-07T01:36:20.830Z,0.69
2023-03-07T01:38:48.564Z,0.74
2023-03-07T01:41:16.159Z,0.76
2023-03-07T01:43:43.415Z,0.74
2023-03-07T01:46:17.676Z,0.66
2023-03-07T01:48:52.216Z,0.71
2023-03-07T01:51:19.712Z,0.76
2023-03-07T01:53:50.673Z,0.80
2023-03-07T01:56:17.548Z,0.86
2023-03-07T01:58:44.127Z,0.93
2023-03-07T02:01:13.910Z,0.97
2023-03-07T02:03:53.156Z,0.99
2023-03-07T02:06:20.522Z,0.86
2023-03-07T02:08:49.599Z,1.02
2023-03-07T02:11:16.992Z,0.98
2023-03-07T02:13:43.532Z,0.96
2023-03-07T02:16:12.047Z,0.99
2023-03-07T02:18:43.872Z,1.06
2023-03-07T02:21:30.746Z,1.07
2023-03-07T02:24:09.804Z,1.10
2023-03-07T02:26:47.317Z,1.07
2023-03-07T02:29:14.783Z,1.06
2023-03-07T02:31:44.785Z,1.15
2023-03-07T02:34:25.925Z,1.22
2023-03-07T02:37:14.774Z,1.18
2023-03-07T02:39:43.725Z,1.31
2023-03-07T02:42:16.128Z,1.28
2023-03-07T02:44:56.121Z,1.34
2023-03-07T02:47:22.849Z,1.43
2023-03-07T02:49:49.493Z,1.34
2023-03-07T02:52:16.078Z,1.39
2023-03-07T02:54:42.510Z,1.43
2023-03-07T02:57:10.540Z,1.50
2023-03-07T02:59:37.259Z,1.51
2023-03-07T03:02:03.749Z,1.50
2023-03-07T03:04:30.190Z,1.61
2023-03-07T03:06:56.677Z,1.58
2023-03-07T03:09:23.157Z,1.60
2023-03-07T03:11:49.540Z,1.56
2023-03-07T03:14:18.832Z,1.60
2023-03-07T03:16:45.274Z,1.61
2023-03-07T03:19:12.035Z,1.68
2023-03-07T03:21:38.850Z,1.69
2023-03-07T03:24:06.847Z,1.73
2023-03-07T03:26:34.877Z,1.72
2023-03-07T03:29:02.922Z,1.75
2023-03-07T03:31:30.368Z,1.79
2023-03-07T03:33:58.273Z,1.78
2023-03-07T03:36:26.994Z,1.77
2023-03-07T03:38:59.669Z,1.81
2023-03-07T03:41:26.796Z,1.78
2023-03-07T03:43:54.043Z,1.77
2023-03-07T03:46:21.088Z,1.78
2023-03-07T03:48:53.330Z,1.82
2023-03-07T03:51:22.277Z,1.83
2023-03-07T03:53:49.297Z,1.89
2023-03-07T03:56:18.024Z,1.95
2023-03-07T03:58:47.461Z,1.86
2023-03-07T04:01:14.091Z,1.90
2023-03-07T04:03:43.385Z,1.83
2023-03-07T04:06:12.983Z,1.95
2023-03-07T04:08:40.909Z,1.84
2023-03-07T04:11:07.364Z,1.98
2023-03-07T04:13:35.207Z,2.06
2023-03-07T04:16:02.397Z,1.97
2023-03-07T04:18:29.002Z,2.03
2023-03-07T04:20:55.724Z,1.97
2023-03-07T04:23:24.152Z,2.02
2023-03-07T04:25:55.525Z,2.05
2023-03-07T04:28:24.894Z,2.11
2023-03-07T04:30:53.099Z,2.06
2023-03-07T04:33:20.617Z,1.98
2023-03-07T04:35:48.392Z,2.04
2023-03-07T04:38:15.753Z,2.08
2023-03-07T04:40:42.259Z,1.91
2023-03-07T04:43:10.210Z,1.91
2023-03-07T04:45:37.220Z,1.91
2023-03-07T04:48:04.604Z,1.83
2023-03-07T04:50:32.247Z,1.87
2023-03-07T04:52:58.719Z,1.80
2023-03-07T04:55:25.288Z,1.86
2023-03-07T04:57:52.037Z,1.89
2023-03-07T05:00:19.982Z,1.76
2023-03-07T05:02:48.615Z,1.81
2023-03-07T05:05:17.352Z,1.82
2023-03-07T05:07:44.354Z,1.72
2023-03-07T05:10:11.910Z,1.80
2023-03-07T05:12:38.426Z,1.88
2023-03-07T05:15:06.524Z,1.82
2023-03-07T05:17:32.941Z,1.76
2023-03-07T05:19:59.369Z,1.90
2023-03-07T05:22:25.841Z,1.76
2023-03-07T05:24:52.267Z,1.82
2023-03-07T05:27:19.013Z,1.86
2023-03-07T05:29:45.478Z,1.86
2023-03-07T05:32:11.922Z,1.85
2023-03-07T05:34:39.357Z,1.90
2023-03-07T05:37:06.106Z,1.82
2023-03-07T05:39:32.677Z,1.90
2023-03-07T05:41:59.239Z,1.91
2023-03-07T05:44:26.422Z,1.88
2023-03-07T05:46:54.598Z,1.87
2023-03-07T05:49:21.169Z,1.94
2023-03-07T05:51:47.624Z,1.98
2023-03-07T05:54:14.060Z,1.92
2023-03-07T05:56:40.530Z,1.95
2023-03-07T05:59:07.800Z,2.06
2023-03-07T06:01:34.665Z,2.13
2023-03-07T06:04:01.200Z,2.12
2023-03-07T06:06:27.645Z,2.10
2023-03-07T06:08:54.116Z,2.07
2023-03-07T06:11:21.078Z,2.12
2023-03-07T06:13:47.649Z,2.22
2023-03-07T06:16:14.126Z,2.22
2023-03-07T06:18:41.620Z,2.25
2023-03-07T06:21:10.227Z,2.26
2023-03-07T06:23:41.720Z,2.20
2023-03-07T06:26:12.558Z,2.17
2023-03-07T06:28:40.851Z,2.27
2023-03-07T06:31:15.996Z,2.17
2023-03-07T06:33:44.262Z,2.21
2023-03-07T06:36:14.119Z,2.23
2023-03-07T06:38:42.698Z,2.39
2023-03-07T06:41:09.340Z,2.31
2023-03-07T06:43:35.793Z,2.27
2023-03-07T06:46:03.545Z,2.38
2023-03-07T06:48:34.866Z,2.42
2023-03-07T06:51:07.539Z,2.44
2023-03-07T06:53:34.309Z,2.51
2023-03-07T06:56:02.095Z,2.43
2023-03-07T06:58:28.660Z,2.39
2023-03-07T07:00:55.576Z,2.44
2023-03-07T07:03:22.344Z,2.52
2023-03-07T07:05:48.813Z,2.59
2023-03-07T07:08:15.221Z,2.53
2023-03-07T07:10:41.914Z,2.52
2023-03-07T07:13:08.630Z,2.58
2023-03-07T07:15:35.329Z,2.63
2023-03-07T07:18:01.769Z,2.67
2023-03-07T07:20:31.692Z,2.67
2023-03-07T07:22:58.081Z,2.70
2023-03-07T07:25:24.540Z,2.79
2023-03-07T07:27:51.073Z,2.80
2023-03-07T07:30:17.791Z,2.79
2023-03-07T07:32:44.945Z,2.87
2023-03-07T07:35:11.808Z,2.95
2023-03-07T07:37:38.330Z,2.94
2023-03-07T07:40:05.192Z,2.92
2023-03-07T07:42:32.396Z,3.00
2023-03-07T07:45:25.151Z,2.85
2023-03-07T07:47:52.332Z,2.95
2023-03-07T07:50:24.100Z,3.00
2023-03-07T07:52:53.135Z,3.04
2023-03-07T07:55:20.061Z,3.04
2023-03-07T07:57:46.803Z,3.03
2023-03-07T08:00:14.153Z,3.07
2023-03-07T08:02:40.667Z,3.10
2023-03-07T08:05:08.128Z,3.19
2023-03-07T08:07:34.514Z,3.17
2023-03-07T08:10:00.929Z,3.10
2023-03-07T08:12:28.074Z,3.16
2023-03-07T08:14:54.516Z,3.19
2023-03-07T08:17:20.923Z,3.22
2023-03-07T08:19:47.358Z,3.19
2023-03-07T08:22:13.956Z,3.19
2023-03-07T08:24:41.213Z,3.33
2023-03-07T08:27:08.067Z,3.31
2023-03-07T08:29:35.279Z,3.39
2023-03-07T08:32:01.847Z,3.46
2023-03-07T08:34:28.245Z,3.47
2023-03-07T08:36:54.644Z,3.41
2023-03-07T08:39:21.035Z,3.42
2023-03-07T08:41:47.427Z,3.48
2023-03-07T08:44:13.817Z,3.55
2023-03-07T08:46:40.375Z,3.48
2023-03-07T08:49:06.805Z,3.60
2023-03-07T08:51:33.215Z,3.53
2023-03-07T08:53:59.673Z,3.65
2023-03-07T08:56:27.225Z,3.76
2023-03-07T08:58:54.543Z,3.75
2023-03-07T09:01:21.070Z,3.74
2023-03-07T09:03:47.580Z,3.73
2023-03-07T09:06:19.186Z,3.78
2023-03-07T09:08:47.273Z,3.93
2023-03-07T09:11:14.150Z,3.91
2023-03-07T09:13:51.456Z,3.93
2023-03-07T09:16:20.846Z,3.90
2023-03-07T09:18:47.368Z,4.05
2023-03-07T09:21:13.792Z,4.10
2023-03-07T09:23:40.224Z,4.14
2023-03-07T09:26:06.754Z,4.22
2023-03-07T09:28:33.297Z,4.30
2023-03-07T09:30:59.789Z,4.36
2023-03-07T09:33:26.172Z,4.34
2023-03-07T09:35:52.587Z,4.35
2023-03-07T09:38:19.026Z,4.40
2023-03-07T09:40:47.739Z,4.40
2023-03-07T09:43:20.601Z,4.45
2023-03-07T09:46:46.710Z,4.51
2023-03-07T09:49:23.410Z,4.51
2023-03-07T09:51:53.944Z,4.50
2023-03-07T09:54:24.926Z,4.55
2023-03-07T09:56:57.825Z,4.61
2023-03-07T09:59:38.974Z,4.68
2023-03-07T10:02:23.342Z,4.62
2023-03-07T10:05:42.984Z,4.74
2023-03-07T10:08:15.466Z,4.60
2023-03-07T10:10:47.626Z,4.64
2023-03-07T10:13:37.838Z,4.72
2023-03-07T10:16:24.562Z,4.82
2023-03-07T10:19:23.670Z,4.72
2023-03-07T10:22:12.359Z,4.77
2023-03-07T10:24:45.378Z,4.81
2023-03-07T10:27:13.142Z,4.74
2023-03-07T10:29:51.166Z,4.82
2023-03-07T10:32:37.630Z,4.80
2023-03-07T10:35:16.777Z,4.69
2023-03-07T10:37:58.532Z,4.69
2023-03-07T10:40:41.687Z,4.63
2023-03-07T10:43:20.902Z,4.53
2023-03-07T10:45:47.332Z,4.53
2023-03-07T10:48:18.802Z,4.56
2023-03-07T10:50:53.429Z,4.63
2023-03-07T10:53:25.316Z,4.63
2023-03-07T10:55:52.439Z,4.61
2023-03-07T10:58:23.388Z,4.71
2023-03-07T11:01:10.989Z,4.66
2023-03-07T11:03:55.404Z,4.82
2023-03-07T11:06:39.963Z,4.87
2023-03-07T11:09:33.895Z,4.90
2023-03-07T11:12:10.629Z,4.76
2023-03-07T11:14:54.414Z,4.79
2023-03-07T11:17:39.067Z,4.69
2023-03-07T11:20:25.474Z,4.87
2023-03-07T11:23:18.290Z,4.85
2023-03-07T11:25:44.963Z,4.80
2023-03-07T11:28:33.298Z,4.85
2023-03-07T11:31:28.994Z,4.85
2023-03-07T11:34:36.652Z,4.86
2023-03-07T11:37:38.119Z,4.82
2023-03-07T11:40:18.641Z,4.78
2023-03-07T11:43:06.757Z,4.64
2023-03-07T11:46:05.920Z,4.55
2023-03-07T11:48:51.411Z,4.60
2023-03-07T11:51:36.035Z,4.52
2023-03-07T11:54:32.663Z,4.63
2023-03-07T11:57:18.983Z,4.50
2023-03-07T12:00:03.612Z,4.57
2023-03-07T12:03:12.921Z,4.51
2023-03-07T12:05:54.292Z,4.33
2023-03-07T12:09:02.203Z,4.34
2023-03-07T12:11:47.581Z,4.40
2023-03-07T12:14:28.986Z,4.42
2023-03-07T12:17:27.805Z,4.38
2023-03-07T12:20:15.044Z,4.28
2023-03-07T12:23:02.871Z,4.12
2023-03-07T12:25:46.303Z,4.13
2023-03-07T12:28:18.823Z,4.08
2023-03-07T12:31:08.777Z,3.97
2023-03-07T12:33:51.548Z,3.84
2023-03-07T12:36:27.827Z,3.83
2023-03-07T12:39:20.095Z,3.99
2023-03-07T12:42:06.633Z,3.77
2023-03-07T12:44:40.100Z,3.90
2023-03-07T12:47:25.410Z,3.80
2023-03-07T12:50:00.105Z,3.75
2023-03-07T12:52:44.769Z,3.83
2023-03-07T12:55:22.830Z,3.68
2023-03-07T12:57:57.773Z,3.70
2023-03-07T13:00:25.610Z,3.53
2023-03-07T13:03:04.246Z,3.57
2023-03-07T13:05:33.339Z,3.39
2023-03-07T13:07:59.942Z,3.44
2023-03-07T13:10:26.938Z,3.60
2023-03-07T13:12:53.514Z,3.68
2023-03-07T13:15:20.910Z,3.59
2023-03-07T13:17:47.245Z,3.59
2023-03-07T13:20:19.360Z,3.68
2023-03-07T13:22:45.703Z,3.62
2023-03-07T13:25:21.187Z,3.66
2023-03-07T13:27:52.636Z,3.65
2023-03-07T13:30:32.719Z,3.65
2023-03-07T13:33:27.561Z,3.71
2023-03-07T13:35:56.779Z,3.73
2023-03-07T13:38:46.490Z,3.64
2023-03-07T13:41:33.726Z,3.61
2023-03-07T13:44:01.988Z,3.61
2023-03-07T13:46:43.714Z,3.69
2023-03-07T13:49:10.131Z,3.68
2023-03-07T13:51:36.531Z,3.56
2023-03-07T13:54:05.538Z,3.50
2023-03-07T13:56:42.318Z,3.43
2023-03-07T13:59:21.541Z,3.40
2023-03-07T14:01:54.605Z,3.46
2023-03-07T14:04:38.971Z,3.46
2023-03-07T14:07:21.490Z,3.45
2023-03-07T14:09:57.094Z,3.43
2023-03-07T14:12:40.438Z,3.42
2023-03-07T14:15:14.815Z,3.47
2023-03-07T14:17:54.801Z,3.55
2023-03-07T14:20:21.233Z,3.46
2023-03-07T14:23:02.191Z,3.46
2023-03-07T14:25:42.979Z,3.44
2023-03-07T14:28:26.776Z,3.45
2023-03-07T14:30:58.773Z,3.49
2023-03-07T14:33:38.159Z,3.48
2023-03-07T14:36:18.919Z,3.53
2023-03-07T14:38:47.128Z,3.55
2023-03-07T14:41:36.313Z,3.49
2023-03-07T14:44:24.371Z,3.50
2023-03-07T14:47:06.494Z,3.41
2023-03-07T14:49:39.219Z,3.54
2023-03-07T14:52:06.031Z,3.62
2023-03-07T14:54:33.940Z,3.56
2023-03-07T14:57:01.357Z,3.56
2023-03-07T14:59:29.415Z,3.59
2023-03-07T15:02:00.044Z,3.56
2023-03-07T15:04:31.564Z,3.69
2023-03-07T15:07:01.384Z,3.71
2023-03-07T15:09:28.609Z,3.66
2023-03-07T15:12:01.914Z,3.67
2023-03-07T15:14:44.420Z,3.65
2023-03-07T15:17:16.763Z,3.44
2023-03-07T15:19:55.381Z,3.73
2023-03-07T15:22:39.307Z,3.71
2023-03-07T15:25:16.852Z,3.71
2023-03-07T15:27:43.359Z,3.69
2023-03-07T15:30:23.773Z,3.63
2023-03-07T15:33:03.402Z,3.71
2023-03-07T15:35:29.857Z,3.76
2023-03-07T15:38:07.771Z,3.84
2023-03-07T15:40:36.088Z,3.81
2023-03-07T15:43:04.398Z,3.79
2023-03-07T15:45:34.108Z,3.70
2023-03-07T15:48:08.992Z,3.75
2023-03-07T15:50:35.488Z,3.82
2023-03-07T15:53:18.088Z,3.80
2023-03-07T15:55:55.765Z,3.83
2023-03-07T15:58:22.863Z,3.81
2023-03-07T16:00:49.255Z,3.77
2023-03-07T16:03:30.107Z,3.75
2023-03-07T16:05:59.028Z,3.78
2023-03-07T16:08:25.698Z,3.82
2023-03-07T16:10:57.667Z,3.76
2023-03-07T16:13:29.092Z,3.74
2023-03-07T16:16:14.247Z,3.73
2023-03-07T16:18:42.097Z,3.65
2023-03-07T16:21:13.944Z,3.69
2023-03-07T16:23:40.456Z,3.51
2023-03-07T16:26:07.671Z,3.64
2023-03-07T16:28:34.777Z,3.62
2023-03-07T16:31:01.269Z,3.73
2023-03-07T16:33:27.678Z,3.62
2023-03-07T16:35:54.097Z,3.73
2023-03-07T16:38:21.349Z,3.67
2023-03-07T16:40:47.747Z,3.63
2023-03-07T16:43:23.721Z,3.63
2023-03-07T16:45:50.143Z,3.62
2023-03-07T16:48:17.306Z,3.72
2023-03-07T16:50:43.688Z,3.66
2023-03-07T16:53:10.103Z,3.71
2023-03-07T16:55:38.162Z,3.66
2023-03-07T16:58:06.493Z,3.63
2023-03-07T17:00:32.973Z,3.64
2023-03-07T17:03:00.697Z,3.68
2023-03-07T17:05:28.855Z,3.56
2023-03-07T17:07:57.283Z,3.59
2023-03-07T17:10:26.430Z,3.63
2023-03-07T17:12:54.996Z,3.65
2023-03-07T17:15:26.106Z,3.66
2023-03-07T17:17:53.124Z,3.54
2023-03-07T17:20:20.376Z,3.48
2023-03-07T17:22:46.777Z,3.54
2023-03-07T17:25:13.245Z,3.45
2023-03-07T17:27:45.325Z,3.49
2023-03-07T17:30:19.250Z,3.47
2023-03-07T17:32:47.099Z,3.36
2023-03-07T17:35:15.014Z,3.38
2023-03-07T17:37:42.328Z,3.38
2023-03-07T17:40:10.871Z,3.47
2023-03-07T17:42:37.721Z,3.41
2023-03-07T17:45:09.820Z,3.46
2023-03-07T17:47:36.961Z,3.47
2023-03-07T17:50:05.422Z,3.50
2023-03-07T17:52:32.810Z,3.45
2023-03-07T17:54:59.338Z,3.45
2023-03-07T17:57:27.216Z,3.42
2023-03-07T17:59:54.897Z,3.40
2023-03-07T18:02:21.456Z,3.44
2023-03-07T18:04:47.845Z,3.44
2023-03-07T18:07:14.236Z,3.34
2023-03-07T18:09:40.654Z,3.35
2023-03-07T18:12:07.416Z,3.29
2023-03-07T18:14:33.845Z,3.30
2023-03-07T18:17:00.235Z,3.34
2023-03-07T18:19:27.419Z,3.26
2023-03-07T18:21:55.216Z,3.15
2023-03-07T18:24:26.272Z,3.11
2023-03-07T18:26:54.851Z,3.09
2023-03-07T18:29:21.919Z,3.09
2023-03-07T18:31:48.310Z,3.16
2023-03-07T18:34:15.276Z,3.18
2023-03-07T18:36:42.434Z,3.18
2023-03-07T18:39:11.046Z,3.10
2023-03-07T18:41:37.889Z,3.12
2023-03-07T18:44:04.351Z,2.99
2023-03-07T18:46:32.201Z,3.07
2023-03-07T18:48:59.807Z,3.05
2023-03-07T18:51:26.951Z,3.02
2023-03-07T18:53:58.588Z,2.93
2023-03-07T18:56:25.959Z,3.04
2023-03-07T18:58:55.783Z,2.98
2023-03-07T19:01:31.467Z,2.88
2023-03-07T19:04:02.011Z,2.98
2023-03-07T19:06:39.330Z,2.92
2023-03-07T19:09:06.835Z,2.93
2023-03-07T19:11:33.452Z,2.94
2023-03-07T19:14:00.056Z,2.91
2023-03-07T19:16:28.168Z,2.95
2023-03-07T19:18:55.596Z,2.90
2023-03-07T19:21:24.025Z,2.94
2023-03-07T19:23:51.859Z,2.92
2023-03-07T19:26:19.509Z,2.96
2023-03-07T19:28:48.034Z,2.92
2023-03-07T19:31:17.553Z,2.93
2023-03-07T19:33:45.565Z,2.95
2023-03-07T19:36:14.457Z,2.92
2023-03-07T19:38:41.516Z,2.84
2023-03-07T19:41:12.305Z,2.84
2023-03-07T19:43:39.028Z,2.84
2023-03-07T19:46:07.582Z,2.91
2023-03-07T19:48:34.714Z,2.84
2023-03-07T19:51:01.516Z,2.79
2023-03-07T19:53:28.888Z,2.86
2023-03-07T19:55:55.717Z,2.92
2023-03-07T19:58:22.279Z,2.85
2023-03-07T20:00:48.660Z,2.83
2023-03-07T20:03:19.644Z,2.70
2023-03-07T20:05:50.740Z,2.79
2023-03-07T20:08:17.194Z,2.84
2023-03-07T20:10:44.698Z,2.67
2023-03-07T20:13:13.401Z,2.72
2023-03-07T20:15:39.872Z,2.81
2023-03-07T20:18:06.290Z,2.77
2023-03-07T20:20:35.578Z,2.79
2023-03-07T20:23:01.992Z,2.74
2023-03-07T20:25:29.706Z,2.73
2023-03-07T20:27:56.252Z,2.76
2023-03-07T20:30:23.967Z,2.79
2023-03-07T20:32:50.768Z,2.76
2023-03-07T20:35:17.287Z,2.80
2023-03-07T20:37:43.712Z,2.65
2023-03-07T20:40:10.705Z,2.75
2023-03-07T20:42:37.167Z,2.71
2023-03-07T20:45:04.105Z,2.71
2023-03-07T20:47:32.389Z,2.77
2023-03-07T20:49:58.782Z,2.75
2023-03-07T20:52:25.890Z,2.77
2023-03-07T20:54:52.315Z,2.72
2023-03-07T20:57:18.722Z,2.69
2023-03-07T20:59:45.155Z,2.68
2023-03-07T21:02:11.959Z,2.67
2023-03-07T21:04:38.888Z,2.63
2023-03-07T21:07:05.518Z,2.70
2023-03-07T21:09:32.219Z,2.70
2023-03-07T21:11:58.889Z,2.71
2023-03-07T21:14:26.927Z,2.68
2023-03-07T21:16:53.429Z,2.64
2023-03-07T21:19:22.308Z,2.66
2023-03-07T21:21:48.748Z,2.68
2023-03-07T21:24:15.817Z,2.60
2023-03-07T21:26:42.422Z,2.56
2023-03-07T21:29:10.688Z,2.56
2023-03-07T21:31:38.556Z,2.60
2023-03-07T21:34:13.512Z,2.54
2023-03-07T21:36:39.987Z,2.45
2023-03-07T21:39:08.174Z,2.49
2023-03-07T21:41:34.836Z,2.44
2023-03-07T21:44:01.716Z,2.56
2023-03-07T21:46:28.412Z,2.51
2023-03-07T21:48:54.816Z,2.59
2023-03-07T21:51:21.465Z,2.53
2023-03-07T21:53:48.025Z,2.58
2023-03-07T21:56:19.006Z,2.61
2023-03-07T21:58:49.817Z,2.51
2023-03-07T22:01:22.085Z,2.58
2023-03-07T22:03:52.210Z,2.52
2023-03-07T22:06:19.616Z,2.48
2023-03-07T22:08:46.175Z,2.47
2023-03-07T22:11:13.003Z,2.44
2023-03-07T22:13:41.153Z,2.44
2023-03-07T22:16:11.393Z,2.33
2023-03-07T22:18:38.425Z,2.39
2023-03-07T22:21:07.703Z,2.33
2023-03-07T22:23:34.344Z,2.37
2023-03-07T22:26:08.652Z,2.38
2023-03-07T22:28:35.732Z,2.39
2023-03-07T22:31:07.294Z,2.38
2023-03-07T22:33:33.870Z,2.38
2023-03-07T22:36:02.952Z,2.30
2023-03-07T22:38:30.166Z,2.33
2023-03-07T22:41:05.680Z,2.25
2023-03-07T22:43:33.012Z,2.28
2023-03-07T22:46:00.177Z,2.26
2023-03-07T22:48:27.549Z,2.23
2023-03-07T22:50:54.114Z,2.23
2023-03-07T22:53:20.676Z,2.20
2023-03-07T22:55:47.280Z,2.21
2023-03-07T22:58:14.279Z,2.19
2023-03-07T23:00:42.651Z,2.25
2023-03-07T23:03:09.921Z,2.18
2023-03-07T23:05:36.951Z,2.11
2023-03-07T23:08:04.571Z,2.19
2023-03-07T23:10:31.746Z,2.13
2023-03-07T23:12:59.304Z,2.04
2023-03-07T23:15:26.556Z,2.12
2023-03-07T23:17:53.243Z,2.07
2023-03-07T23:20:19.854Z,2.13
2023-03-07T23:22:46.716Z,2.07
2023-03-07T23:25:14.926Z,2.08
2023-03-07T23:27:41.346Z,2.09
2023-03-07T23:30:08.668Z,2.03
2023-03-07T23:32:35.182Z,2.04
2023-03-07T23:35:01.830Z,1.98
2023-03-07T23:37:28.225Z,1.98
2023-03-07T23:39:54.645Z,1.83
2023-03-07T23:42:21.364Z,1.91
2023-03-07T23:44:49.286Z,1.78
2023-03-07T23:47:16.048Z,1.79
2023-03-07T23:49:42.604Z,1.85
2023-03-07T23:52:09.006Z,1.81
2023-03-07T23:54:35.429Z,1.81
2023-03-07T23:57:01.817Z,1.82
2023-03-07T23:59:28.209Z,1.81
